Main page
METAR-TAF:

METAR-TAF

Airports :

Sir Seewoosagur Ramgoolam International Airport

Mauritius, Mauritius

latitude: 20-26S, longitude: 057-40E, elevation: 55 m

Current weather observation

The report was made 51 minutes ago, at 08:00 UTC
Wind 10 kt from the East/Southeast
Temperature 31°C
Humidity 63%
Pressure 1012 hPa
Visibility 10 km or more
Scattered clouds at a height of 1600 ft

METAR: FIMP 210800Z 12010KT 9999 SCT016 31/23 Q1012

Time: 12:51 (08:51 UTC)

Forecast

The report was made 3 hours and 36 minutes ago, at 05:15 UTC
Forecast valid from 21 at 06 UTC to 22 at 12 UTC
Wind 10 kt from the East/Southeast
Visibility 10 km or more
Scattered clouds at a height of 1500 ft
Probability 30% :
Temporary
from 21 at 06 UTC to 21 at 12 UTC
Visibility: 7000 m
Few clouds at a height of 1000 ft
Broken clouds at a height of 1400 ft
light rain showers

TAF: FIMP 210515Z 2106/2212 11010KT 9999 SCT015 PROB30 TEMPO 2106/2112 7000 -SHRA FEW010 BKN014

Weather observations and forecasts of more than 4000 airports (METAR and TAF reports).

The available stations are represented by yellow and red dots on the map.

Hover mouse over dot to see the name of the station.

Then click to see weather observations and forecasts.

To change the map : click on the green buttons with a black cross to zoom in, on the green button with a dash to zoom out, or on the green arrows for adjacent maps.


METAR-TAF: